createdAt,value
2023-05-11T00:04:47.364Z,24.8
2023-05-11T00:10:23.797Z,24.4
2023-05-11T00:15:44.494Z,24.1
2023-05-11T00:21:21.458Z,23.8
2023-05-11T00:26:57.673Z,23.6
2023-05-11T00:32:19.967Z,23.4
2023-05-11T00:37:58.728Z,23.3
2023-05-11T00:43:35.729Z,23.1
2023-05-11T00:49:11.590Z,23.1
2023-05-11T00:54:47.754Z,22.9
2023-05-11T01:00:23.969Z,22.9
2023-05-11T01:06:01.150Z,22.8
2023-05-11T01:11:37.248Z,22.8
2023-05-11T01:17:29.532Z,22.7
2023-05-11T01:23:05.750Z,22.7
2023-05-11T01:28:41.326Z,22.8
2023-05-11T01:34:35.893Z,22.8
2023-05-11T01:40:26.916Z,22.9
2023-05-11T01:46:18.608Z,23
2023-05-11T01:51:55.357Z,23.1
2023-05-11T01:57:46.539Z,23.1
2023-05-11T02:03:38.678Z,23.1
2023-05-11T02:09:30.452Z,23.2
2023-05-11T02:15:21.818Z,23.1
2023-05-11T02:21:14.241Z,23.1
2023-05-11T02:27:05.813Z,23.1
2023-05-11T02:32:42.446Z,23.1
2023-05-11T02:38:34.365Z,23.1
2023-05-11T02:44:26.710Z,23
2023-05-11T02:50:18.757Z,23
2023-05-11T02:56:10.609Z,22.9
2023-05-11T03:02:04.360Z,22.9
2023-05-11T03:07:56.911Z,22.9
2023-05-11T03:13:50.179Z,22.9
2023-05-11T03:19:42.578Z,22.8
2023-05-11T03:25:33.997Z,22.8
2023-05-11T03:31:26.048Z,22.8
2023-05-11T03:37:20.668Z,22.7
2023-05-11T03:43:12.171Z,22.6
2023-05-11T03:49:06.205Z,22.6
2023-05-11T03:54:58.121Z,22.6
2023-05-11T04:00:49.699Z,22.6
2023-05-11T04:06:42.793Z,22.5
2023-05-11T04:12:34.178Z,22.4
2023-05-11T04:18:26.107Z,22.4
2023-05-11T04:24:18.071Z,22.3
2023-05-11T04:30:09.649Z,22.3
2023-05-11T04:36:01.014Z,22.3
2023-05-11T04:41:53.059Z,22.3
2023-05-11T04:47:44.413Z,22.2
2023-05-11T04:53:20.481Z,22.1
2023-05-11T04:58:57.138Z,22.1
2023-05-11T05:04:36.208Z,22
2023-05-11T05:10:12.041Z,22
2023-05-11T05:16:03.108Z,21.9
2023-05-11T05:21:54.971Z,21.8
2023-05-11T05:27:46.165Z,21.8
2023-05-11T05:33:23.437Z,21.8
2023-05-11T05:38:59.832Z,21.7
2023-05-11T05:44:50.924Z,21.7
2023-05-11T05:50:45.098Z,21.6
2023-05-11T05:56:36.565Z,21.6
2023-05-11T06:02:30.190Z,21.6
2023-05-11T06:08:41.873Z,21.6
2023-05-11T06:14:20.271Z,21.5
2023-05-11T06:20:12.051Z,21.4
2023-05-11T06:26:03.161Z,21.4
2023-05-11T06:31:43.278Z,21.4
2023-05-11T06:37:04.579Z,21.4
2023-05-11T06:42:56.446Z,21.3
2023-05-11T06:48:49.413Z,21.3
2023-05-11T06:54:44.337Z,21.3
2023-05-11T07:00:36.006Z,21.3
2023-05-11T07:06:28.289Z,21.3
2023-05-11T07:12:20.742Z,21.3
2023-05-11T07:18:13.204Z,21.2
2023-05-11T07:28:55.267Z,21.2
2023-05-11T07:34:33.047Z,21.2
2023-05-11T07:40:25.162Z,21.2
2023-05-11T07:46:19.920Z,21.2
2023-05-11T07:58:22.735Z,21.2
2023-05-11T08:04:15.536Z,21.2
2023-05-11T08:15:47.174Z,21.2
2023-05-11T08:21:39.865Z,21.2
2023-05-11T08:44:54.636Z,21.2
2023-05-11T08:51:05.657Z,21.2
2023-05-11T08:56:57.921Z,21.2
2023-05-11T09:02:50.339Z,21.2
2023-05-11T09:14:26.905Z,21.2
2023-05-11T09:25:57.536Z,21.2
2023-05-11T09:43:49.465Z,21.2
2023-05-11T09:49:45.412Z,21.2
2023-05-11T10:06:53.924Z,21.1
2023-05-11T10:12:49.213Z,21
2023-05-11T10:18:26.803Z,21.1
2023-05-11T10:24:20.448Z,21.1
2023-05-11T10:30:12.814Z,21
2023-05-11T10:36:04.389Z,21
2023-05-11T10:41:56.543Z,21.1
2023-05-11T10:47:51.884Z,21
2023-05-11T10:53:44.682Z,21
2023-05-11T10:59:38.089Z,21
2023-05-11T11:05:30.584Z,21.1
2023-05-11T11:11:23.143Z,21.1
2023-05-11T11:17:15.529Z,21
2023-05-11T11:23:06.846Z,21.1
2023-05-11T11:28:58.164Z,21.1
2023-05-11T11:34:49.908Z,21.1
2023-05-11T11:41:03.328Z,21
2023-05-11T11:46:56.225Z,21
2023-05-11T11:52:47.736Z,21.1
2023-05-11T11:58:40.307Z,21
2023-05-11T12:04:35.095Z,21.1
2023-05-11T12:10:27.516Z,21.1
2023-05-11T12:16:19.008Z,21.1
2023-05-11T12:22:10.735Z,21.1
2023-05-11T12:28:02.576Z,21.1
2023-05-11T12:33:54.394Z,21
2023-05-11T12:39:45.944Z,21.1
2023-05-11T12:45:37.042Z,21.1
2023-05-11T12:51:28.896Z,21
2023-05-11T12:57:20.447Z,21.1
2023-05-11T13:08:48.629Z,21
2023-05-11T13:14:42.944Z,21.1
2023-05-11T13:20:35.722Z,21.1
2023-05-11T13:26:28.781Z,21.1
2023-05-11T13:38:08.919Z,21.1
2023-05-11T13:44:00.189Z,21.1
2023-05-11T13:49:55.940Z,21.1
2023-05-11T13:55:47.556Z,21
2023-05-11T14:01:56.396Z,21
2023-05-11T14:08:03.468Z,21.1
2023-05-11T14:13:56.201Z,21
2023-05-11T14:19:50.249Z,21
2023-05-11T14:25:50.446Z,21
2023-05-11T14:31:45.043Z,20.9
2023-05-11T14:37:38.108Z,21
2023-05-11T14:43:30.487Z,21
2023-05-11T14:49:22.910Z,20.9
2023-05-11T14:55:15.050Z,21
2023-05-11T15:01:21.699Z,21
2023-05-11T15:07:14.887Z,20.9
2023-05-11T15:13:22.493Z,20.9
2023-05-11T15:19:16.178Z,20.9
2023-05-11T15:25:08.530Z,20.9
2023-05-11T15:31:02.793Z,20.9
2023-05-11T15:37:11.530Z,20.9
2023-05-11T15:43:05.613Z,20.9
2023-05-11T15:48:59.744Z,20.9
2023-05-11T15:54:37.661Z,20.9
2023-05-11T16:00:31.757Z,20.9
2023-05-11T16:06:27.071Z,20.9
2023-05-11T16:12:20.717Z,20.8
2023-05-11T16:18:17.853Z,20.9
2023-05-11T16:24:12.181Z,20.8
2023-05-11T16:30:18.237Z,20.8
2023-05-11T16:36:18.651Z,20.8
2023-05-11T16:42:14.693Z,20.8
2023-05-11T16:48:10.481Z,20.8
2023-05-11T16:54:10.270Z,20.8
2023-05-11T17:00:10.204Z,20.8
2023-05-11T17:06:13.727Z,20.8
2023-05-11T17:12:13.634Z,20.8
2023-05-11T17:18:14.683Z,20.8
2023-05-11T17:24:15.068Z,20.8
2023-05-11T17:30:36.256Z,20.8
2023-05-11T17:37:01.883Z,20.7
2023-05-11T17:43:11.465Z,20.7
2023-05-11T17:49:13.296Z,20.8
2023-05-11T17:55:13.879Z,20.7
2023-05-11T18:01:15.121Z,20.8
2023-05-11T18:07:30.116Z,20.7
2023-05-11T18:13:34.014Z,20.7
2023-05-11T18:19:19.940Z,20.7
2023-05-11T18:25:20.336Z,20.7
2023-05-11T18:31:20.748Z,20.7
2023-05-11T18:37:05.693Z,20.7
2023-05-11T18:43:07.269Z,20.6
2023-05-11T18:49:07.311Z,20.6
2023-05-11T18:55:13.517Z,20.7
2023-05-11T19:01:36.416Z,20.6
2023-05-11T19:07:39.125Z,20.6
2023-05-11T19:13:43.475Z,20.6
2023-05-11T19:19:45.794Z,20.6
2023-05-11T19:25:49.973Z,20.6
2023-05-11T19:31:59.032Z,20.6
2023-05-11T19:38:00.024Z,20.6
2023-05-11T19:44:53.289Z,20.6
2023-05-11T19:50:58.207Z,20.6
2023-05-11T19:56:58.540Z,20.6
2023-05-11T20:06:59.173Z,20.6
2023-05-11T20:13:02.470Z,20.6
2023-05-11T20:19:03.789Z,20.6
2023-05-11T20:25:04.862Z,20.6
2023-05-11T20:31:06.377Z,20.6
2023-05-11T20:37:20.454Z,20.6
2023-05-11T20:43:19.979Z,20.6
2023-05-11T20:49:38.683Z,20.6
2023-05-11T20:55:38.777Z,20.6
2023-05-11T21:01:47.315Z,20.6
2023-05-11T21:07:47.520Z,20.6
2023-05-11T21:13:45.125Z,20.6
2023-05-11T21:19:43.897Z,20.6
2023-05-11T21:25:23.895Z,20.6
2023-05-11T21:31:02.497Z,20.6
2023-05-11T21:36:25.871Z,20.5
2023-05-11T21:42:02.818Z,20.6
2023-05-11T21:47:23.442Z,20.6
2023-05-11T21:52:59.483Z,20.6
2023-05-11T21:58:35.331Z,20.5
2023-05-11T22:04:13.510Z,20.5
2023-05-11T22:09:57.318Z,20.5
2023-05-11T22:15:33.402Z,20.5
2023-05-11T22:21:09.786Z,20.5
2023-05-11T22:26:45.912Z,20.5
2023-05-11T22:32:22.179Z,20.4
2023-05-11T22:37:43.084Z,20.5
2023-05-11T22:43:03.931Z,20.4
2023-05-11T22:48:25.121Z,20.5
2023-05-11T22:53:45.608Z,20.5
2023-05-11T22:58:51.217Z,20.4
2023-05-11T23:04:13.905Z,20.4
2023-05-11T23:09:49.622Z,20.4
2023-05-11T23:15:10.085Z,20.4
2023-05-11T23:20:31.663Z,20.4
2023-05-11T23:25:36.966Z,20.4
2023-05-11T23:30:57.545Z,20.4
2023-05-11T23:36:19.389Z,20.4
2023-05-11T23:41:40.573Z,20.4
2023-05-11T23:47:17.193Z,20.4
2023-05-11T23:52:38.182Z,20.3
2023-05-11T23:58:15.394Z,20.3
